Time;durP1;ratioP1;P1;durP2;ratioP2;P2;SDS_P1;SDS_P2;PMS_P1;PMS_P2;Temp;Humidity;BMP_temperature;BMP_pressure;BME280_temperature;BME280_humidity;BME280_pressure;Samples;Min_cycle;Max_cycle;Signal;HPM_P1;HPM_P2
2021/07/28 00:04:21;;;;;;;1999.90;999.90;;;;;;;23.03;58.80;100650.13;15870466;28;20044;-64
2021/07/28 00:11:55;;;;;;;1999.90;999.90;;;;;;;22.91;59.02;100642.06;15868375;28;20511;-64
2021/07/28 00:19:30;;;;;;;1999.90;999.90;;;;;;;22.80;59.17;100637.66;15867898;28;20043;-64
2021/07/28 00:27:04;;;;;;;1999.90;999.90;;;;;;;22.62;60.57;100627.25;15865694;28;20435;-65
2021/07/28 00:34:36;;;;;;;1999.90;999.90;;;;;;;22.29;61.91;100625.03;15865237;28;20042;-64
2021/07/28 00:42:10;;;;;;;1999.90;999.90;;;;;;;22.19;62.21;100623.84;15864787;28;20036;-64
2021/07/28 00:49:42;;;;;;;1999.90;999.90;;;;;;;22.01;63.52;100628.81;15864474;28;20441;-64
2021/07/28 00:57:16;;;;;;;1999.90;999.90;;;;;;;21.96;63.29;100621.53;15848188;28;20523;-64
2021/07/28 01:04:48;;;;;;;1999.90;999.90;;;;;;;21.88;62.95;100615.09;15865619;28;20039;-64
2021/07/28 01:12:24;;;;;;;1999.90;999.90;;;;;;;21.81;63.54;100617.13;15872403;28;20031;-64
2021/07/28 01:20:01;;;;;;;1999.90;999.90;;;;;;;21.68;64.02;100605.44;15878048;28;20047;-64
2021/07/28 01:27:36;;;;;;;1999.90;999.90;;;;;;;21.54;64.65;100609.13;15877839;28;20126;-64
2021/07/28 01:35:14;;;;;;;1999.90;999.90;;;;;;;21.42;64.83;100623.75;15875538;28;20052;-66
2021/07/28 01:42:48;;;;;;;1999.90;999.90;;;;;;;21.40;64.68;100622.56;15876206;28;20044;-65
2021/07/28 01:50:20;;;;;;;1999.90;999.90;;;;;;;21.61;63.59;100616.81;15858004;28;20043;-65
2021/07/28 01:57:54;;;;;;;1999.90;999.90;;;;;;;21.58;64.96;100604.25;15875433;28;20123;-66
2021/07/28 02:05:26;;;;;;;1999.90;999.90;;;;;;;21.56;64.48;100609.50;15857576;28;20115;-66
2021/07/28 02:13:01;;;;;;;1999.90;999.90;;;;;;;21.64;62.39;100612.31;15881084;28;20096;-66
2021/07/28 02:20:34;;;;;;;1999.90;999.90;;;;;;;21.48;62.04;100604.28;15873808;28;20046;-65
2021/07/28 02:28:08;;;;;;;1999.90;999.90;;;;;;;21.63;63.61;100597.31;15873087;28;20044;-65
2021/07/28 02:35:40;;;;;;;1999.90;999.90;;;;;;;21.54;63.42;100613.97;15873609;28;20384;-65
2021/07/28 02:43:13;;;;;;;1999.90;999.90;;;;;;;21.62;63.03;100595.72;15873927;28;20115;-65
2021/07/28 02:50:46;;;;;;;1999.90;999.90;;;;;;;21.29;64.02;100603.53;15871583;28;20043;-65
2021/07/28 02:58:19;;;;;;;1999.90;999.90;;;;;;;20.90;64.42;100608.41;15872169;28;20111;-65
2021/07/28 03:05:51;;;;;;;1999.90;999.90;;;;;;;21.42;65.11;100617.28;15871222;28;20097;-65
2021/07/28 03:13:25;;;;;;;1999.90;999.90;;;;;;;21.32;64.31;100614.03;15869839;28;20066;-65
2021/07/28 03:20:58;;;;;;;1999.90;999.90;;;;;;;21.17;64.56;100609.59;15868661;28;20078;-64
2021/07/28 03:28:32;;;;;;;1999.90;999.90;;;;;;;21.21;64.22;100627.41;15867339;28;20043;-65
2021/07/28 03:36:05;;;;;;;1999.90;999.90;;;;;;;21.41;64.53;100624.97;15868038;28;20040;-64
2021/07/28 03:43:39;;;;;;;1999.90;999.90;;;;;;;21.46;63.56;100629.41;15867928;28;20047;-65
2021/07/28 03:51:12;;;;;;;1999.90;999.90;;;;;;;21.39;63.33;100616.06;15866213;28;20054;-64
2021/07/28 03:58:45;;;;;;;1999.90;999.90;;;;;;;21.17;64.49;100623.78;15865637;28;20404;-65
2021/07/28 04:06:17;;;;;;;1999.90;999.90;;;;;;;21.37;65.26;100646.09;15866709;28;20058;-65
2021/07/28 04:13:51;;;;;;;1999.90;999.90;;;;;;;21.48;64.72;100633.47;15867082;28;20071;-64
2021/07/28 04:21:23;;;;;;;1999.90;999.90;;;;;;;21.41;65.54;100627.81;15868215;28;20304;-64
2021/07/28 04:28:57;;;;;;;1999.90;999.90;;;;;;;21.38;64.60;100630.66;15868098;28;20039;-64
2021/07/28 04:36:29;;;;;;;1999.90;999.90;;;;;;;21.53;63.95;100643.59;15869413;28;20040;-63
2021/07/28 04:44:09;;;;;;;1999.90;999.90;;;;;;;21.60;65.26;100640.75;15868725;28;20052;-64
2021/07/28 04:51:41;;;;;;;1999.90;999.90;;;;;;;21.47;64.62;100646.06;15868020;28;20044;-64
2021/07/28 04:59:15;;;;;;;1999.90;999.90;;;;;;;21.76;64.39;100643.09;15865653;28;20043;-65
2021/07/28 05:06:47;;;;;;;1999.90;999.90;;;;;;;21.76;64.84;100645.94;15864173;28;20504;-65
2021/07/28 05:14:20;;;;;;;1999.90;999.90;;;;;;;21.52;65.15;100650.50;15863495;28;20074;-65
2021/07/28 05:21:52;;;;;;;1999.90;999.90;;;;;;;21.87;67.03;100644.69;15862921;28;20040;-64
2021/07/28 05:29:26;;;;;;;1999.90;999.90;;;;;;;21.82;67.10;100650.81;15862804;28;20051;-64
2021/07/28 05:36:58;;;;;;;1999.90;999.90;;;;;;;21.88;67.29;100640.66;15862712;28;20224;-65
2021/07/28 05:44:33;;;;;;;1999.90;999.90;;;;;;;21.87;67.84;100629.66;15863175;28;20047;-65
2021/07/28 05:52:05;;;;;;;1999.90;999.90;;;;;;;21.99;68.07;100625.56;15863846;28;20044;-65
2021/07/28 05:59:39;;;;;;;1999.90;999.90;;;;;;;22.42;66.73;100637.56;15871439;28;20480;-64
2021/07/28 06:07:12;;;;;;;1999.90;999.90;;;;;;;22.45;66.59;100629.00;15874833;28;20104;-65
2021/07/28 06:14:48;;;;;;;1999.90;999.90;;;;;;;22.64;67.18;100653.22;15874380;28;20040;-64
2021/07/28 06:22:20;;;;;;;1999.90;999.90;;;;;;;22.64;65.36;100652.44;15872422;28;20047;-65
2021/07/28 06:29:54;;;;;;;1999.90;999.90;;;;;;;22.66;65.17;100656.47;15872112;28;20043;-65
2021/07/28 06:37:26;;;;;;;1999.90;999.90;;;;;;;22.71;65.00;100666.56;15871572;28;20059;-65
2021/07/28 06:45:00;;;;;;;1999.90;999.90;;;;;;;22.81;64.08;100659.19;15854523;28;20047;-65
2021/07/28 06:52:32;;;;;;;1999.90;999.90;;;;;;;22.91;64.13;100673.34;15870985;28;20050;-65
2021/07/28 07:00:06;;;;;;;1999.90;999.90;;;;;;;22.63;63.70;100674.38;15871725;28;20036;-65
2021/07/28 07:07:40;;;;;;;1999.90;999.90;;;;;;;22.65;62.95;100688.97;15869753;28;20138;-64
2021/07/28 07:15:14;;;;;;;1999.90;999.90;;;;;;;22.53;62.37;100695.16;15869339;28;20040;-65
2021/07/28 07:22:48;;;;;;;1999.90;999.90;;;;;;;22.59;61.72;100686.97;15869758;28;20039;-65
2021/07/28 07:30:23;;;;;;;1999.90;999.90;;;;;;;23.50;59.11;100675.28;15870055;28;20036;-66
2021/07/28 07:37:55;;;;;;;1999.90;999.90;;;;;;;24.89;56.88;100679.19;15868225;28;20301;-65
2021/07/28 07:45:29;;;;;;;1999.90;999.90;;;;;;;24.39;57.37;100683.63;15869188;28;20063;-65
2021/07/28 07:53:01;;;;;;;1999.90;999.90;;;;;;;24.56;56.33;100686.63;15868677;28;20450;-64
2021/07/28 08:00:34;;;;;;;1999.90;999.90;;;;;;;25.42;54.80;100688.91;15870588;28;20457;-64
2021/07/28 08:08:07;;;;;;;1999.90;999.90;;;;;;;24.86;57.63;100705.75;15870007;28;20115;-65
2021/07/28 08:15:41;;;;;;;1999.90;999.90;;;;;;;24.72;56.70;100693.31;15850849;28;20069;-65
2021/07/28 08:23:14;;;;;;;1999.90;999.90;;;;;;;24.84;57.26;100679.69;15867197;28;20579;-64
2021/07/28 08:30:48;;;;;;;1999.90;999.90;;;;;;;24.89;55.74;100684.91;15867561;28;20087;-64
2021/07/28 08:38:21;;;;;;;1999.90;999.90;;;;;;;25.76;54.24;100680.97;15848138;28;20058;-65
2021/07/28 08:45:58;;;;;;;1999.90;999.90;;;;;;;26.61;54.23;100677.53;15824409;22;20055;-63
2021/07/28 08:53:31;;;;;;;1999.90;999.90;;;;;;;28.06;52.40;100670.06;15722552;28;20515;-63
2021/07/28 09:01:07;;;;;;;1999.90;999.90;;;;;;;28.25;49.19;100671.16;15796218;28;20044;-63
2021/07/28 09:27:03;;;;;;;1999.90;999.90;;;;;;;28.54;47.92;100670.28;15744012;28;20097;-64
2021/07/28 09:34:37;;;;;;;1999.90;999.90;;;;;;;28.58;47.18;100674.66;15779124;28;20068;-64
2021/07/28 09:42:13;;;;;;;1999.90;999.90;;;;;;;28.15;47.07;100675.94;15761266;28;20543;-63
2021/07/28 09:49:48;;;;;;;1999.90;999.90;;;;;;;27.42;48.48;100668.97;15789058;28;20128;-64
2021/07/28 09:57:23;;;;;;;1999.90;999.90;;;;;;;27.39;50.41;100672.72;15786288;28;20048;-64
2021/07/28 10:04:57;;;;;;;1999.90;999.90;;;;;;;28.17;46.52;100664.00;15708522;28;20058;-64
2021/07/28 10:12:31;;;;;;;1999.90;999.90;;;;;;;28.48;45.74;100649.97;15742412;28;20101;-64
2021/07/28 10:20:04;;;;;;;1999.90;999.90;;;;;;;27.91;42.57;100648.78;15742022;28;20043;-64
2021/07/28 10:27:41;;;;;;;1999.90;999.90;;;;;;;28.20;39.39;100637.28;15741774;28;20045;-63
2021/07/28 10:35:25;;;;;;;1999.90;999.90;;;;;;;27.99;39.26;100652.25;15773013;28;20142;-64
2021/07/28 10:43:03;;;;;;;1999.90;999.90;;;;;;;27.46;40.17;100655.34;15786612;28;20040;-65
2021/07/28 10:50:43;;;;;;;1999.90;999.90;;;;;;;28.40;39.55;100657.97;15803177;28;20115;-64
2021/07/28 10:58:26;;;;;;;1999.90;999.90;;;;;;;27.83;41.07;100667.47;15767555;28;20076;-64
2021/07/28 11:06:26;;;;;;;1999.90;999.90;;;;;;;28.90;42.21;100653.53;15802248;28;20135;-63
2021/07/28 11:14:04;;;;;;;1999.90;999.90;;;;;;;29.16;39.91;100647.75;15783189;28;20052;-63
2021/07/28 11:21:38;;;;;;;1999.90;999.90;;;;;;;29.04;41.72;100660.88;15782645;28;20042;-63
2021/07/28 11:29:16;;;;;;;1999.90;999.90;;;;;;;28.91;41.35;100654.34;15782654;28;20036;-64
2021/07/28 11:36:57;;;;;;;1999.90;999.90;;;;;;;28.63;41.78;100653.16;15755963;28;20048;-64
2021/07/28 11:44:39;;;;;;;1999.90;999.90;;;;;;;28.31;40.43;100659.94;15720043;28;20044;-64
2021/07/28 11:52:11;;;;;;;1999.90;999.90;;;;;;;27.85;42.08;100670.69;15736004;28;20481;-63
2021/07/28 11:59:46;;;;;;;1999.90;999.90;;;;;;;27.94;42.78;100667.97;15736526;28;20045;-61
2021/07/28 12:07:20;;;;;;;1999.90;999.90;;;;;;;28.37;42.05;100672.44;15718791;28;20048;-62
2021/07/28 12:15:08;;;;;;;1999.90;999.90;;;;;;;28.18;40.95;100675.03;15735684;28;20060;-62
2021/07/28 12:22:43;;;;;;;1999.90;999.90;;;;;;;27.77;43.35;100672.94;15699802;28;20075;-64
2021/07/28 12:30:20;;;;;;;1999.90;999.90;;;;;;;27.50;43.32;100670.38;15717284;28;20048;-63
2021/07/28 12:38:04;;;;;;;1999.90;999.90;;;;;;;27.52;43.17;100662.16;15770187;28;20365;-64
2021/07/28 12:45:39;;;;;;;1999.90;999.90;;;;;;;28.19;41.77;100670.09;15778897;28;20067;-63
2021/07/28 12:53:11;;;;;;;1999.90;999.90;;;;;;;28.98;41.12;100657.78;15778878;28;20156;-63
2021/07/28 13:00:45;;;;;;;1999.90;999.90;;;;;;;28.59;42.98;100667.66;15797065;28;20078;-63
2021/07/28 13:08:17;;;;;;;1999.90;999.90;;;;;;;29.53;39.29;100661.22;15807626;28;20516;-63
2021/07/28 13:15:51;;;;;;;1999.90;999.90;;;;;;;31.03;36.47;100659.09;15792399;28;20044;-63
2021/07/28 13:23:23;;;;;;;1999.90;999.90;;;;;;;30.69;36.36;100670.84;15808192;28;20075;-64
2021/07/28 13:30:57;;;;;;;1999.90;999.90;;;;;;;29.76;40.62;100662.84;15808124;28;20044;-63
2021/07/28 13:38:30;;;;;;;1999.90;999.90;;;;;;;28.86;40.91;100664.28;15748356;28;20048;-63
2021/07/28 13:46:05;;;;;;;1999.90;999.90;;;;;;;28.86;43.03;100670.03;15726389;28;20078;-63
2021/07/28 13:53:38;;;;;;;1999.90;999.90;;;;;;;27.82;42.19;100655.19;15743813;28;20433;-64
2021/07/28 14:01:12;;;;;;;1999.90;999.90;;;;;;;28.09;42.11;100654.00;15708799;28;20095;-63
2021/07/28 14:08:44;;;;;;;1999.90;999.90;;;;;;;28.05;41.95;100633.25;15724603;28;20044;-63
2021/07/28 14:16:20;;;;;;;1999.90;999.90;;;;;;;27.83;42.92;100638.81;15741131;28;20037;-64
2021/07/28 14:23:52;;;;;;;1999.90;999.90;;;;;;;27.04;43.45;100632.31;15706926;28;20106;-64
2021/07/28 14:31:25;;;;;;;;;;;;;;;27.84;42.04;100632.63;15723604;28;20045;-64
2021/07/28 14:39:35;;;;;;;1999.90;999.90;;;;;;;27.51;42.88;100622.47;15784781;28;19934;-63
2021/07/28 14:47:10;;;;;;;1999.90;999.90;;;;;;;27.72;42.70;100619.06;15803410;28;20047;-63
2021/07/28 14:54:42;;;;;;;1999.90;999.90;;;;;;;27.02;41.52;100617.66;15767828;28;20051;-63
2021/07/28 15:02:17;;;;;;;;;;;;;;;27.13;39.89;100628.03;15793719;28;20051;-63
2021/07/28 15:09:51;;;;;;;1999.90;999.90;;;;;;;26.83;41.66;100629.97;15801764;28;19927;-63
2021/07/28 15:17:24;;;;;;;1999.90;999.90;;;;;;;26.77;42.23;100628.88;15773447;28;20069;-63
2021/07/28 15:24:57;;;;;;;1999.90;999.90;;;;;;;26.97;42.23;100621.00;15783211;28;20040;-63
2021/07/28 15:32:31;;;;;;;;;;;;;;;26.77;43.21;100612.50;15792014;28;20049;-64
2021/07/28 15:40:06;;;;;;;1999.90;999.90;;;;;;;26.91;42.74;100604.84;15703252;28;19927;-64
2021/07/28 15:47:39;;;;;;;1999.90;999.90;;;;;;;27.37;42.07;100595.03;15737596;28;20171;-64
2021/07/28 15:55:13;;;;;;;1999.90;999.90;;;;;;;27.28;42.12;100577.69;15719667;28;20053;-66
2021/07/28 16:02:46;;;;;;;1999.90;999.90;;;;;;;27.28;42.46;100583.41;15719141;28;20052;-64
2021/07/28 16:10:19;;;;;;;1999.90;999.90;;;;;;;26.83;43.24;100569.88;15736098;28;20047;-64
2021/07/28 16:17:59;;;;;;;;;;;;;;;26.73;42.90;100566.03;15736996;28;20504;-65
2021/07/28 16:25:35;;;;;;;1999.90;999.90;;;;;;;27.03;44.08;100567.72;15736856;28;20298;-63
2021/07/28 16:33:11;;;;;;;1999.90;999.90;;;;;;;26.76;44.45;100584.34;15748827;28;20043;-64
2021/07/28 16:40:43;;;;;;;1999.90;999.90;;;;;;;26.60;45.01;100565.13;15798316;28;20127;-63
2021/07/28 16:48:18;;;;;;;1999.90;999.90;;;;;;;26.70;44.79;100548.94;15798368;28;20055;-64
2021/07/28 16:55:51;;;;;;;1999.90;999.90;;;;;;;26.43;45.10;100557.78;15780939;28;20048;-64
2021/07/28 17:03:25;;;;;;;1999.90;999.90;;;;;;;26.30;45.29;100546.22;15780292;28;20044;-64
2021/07/28 17:10:57;;;;;;;1999.90;999.90;;;;;;;26.36;45.72;100550.16;15797820;28;20124;-64
2021/07/28 17:18:31;;;;;;;1999.90;999.90;;;;;;;26.30;45.94;100546.22;15779012;28;20509;-63
2021/07/28 17:26:03;;;;;;;1999.90;999.90;;;;;;;26.31;45.39;100550.69;15779360;28;20047;-64
2021/07/28 17:33:36;;;;;;;1999.90;999.90;;;;;;;26.01;46.32;100551.81;15761256;28;20048;-64
2021/07/28 17:41:09;;;;;;;1999.90;999.90;;;;;;;25.99;47.14;100547.78;15734495;28;20059;-65
2021/07/28 17:48:43;;;;;;;1999.90;999.90;;;;;;;25.96;47.04;100543.75;15734722;28;20076;-63
2021/07/28 17:56:15;;;;;;;1999.90;999.90;;;;;;;25.97;47.31;100544.56;15709126;28;20060;-64
2021/07/28 18:03:54;;;;;;;1999.90;999.90;;;;;;;25.87;47.76;100550.06;15727742;28;20086;-65
2021/07/28 18:11:26;;;;;;;1999.90;999.90;;;;;;;26.05;47.37;100551.72;15727134;28;20055;-64
2021/07/28 18:19:01;;;;;;;1999.90;999.90;;;;;;;25.72;48.11;100551.63;15745236;28;20048;-64
2021/07/28 18:26:33;;;;;;;1999.90;999.90;;;;;;;25.48;48.56;100544.38;15727812;28;20047;-63
2021/07/28 18:34:07;;;;;;;1999.90;999.90;;;;;;;25.81;49.06;100548.97;15765146;28;20052;-63
2021/07/28 18:41:40;;;;;;;1999.90;999.90;;;;;;;25.44;49.27;100560.78;15788093;28;20493;-63
2021/07/28 18:49:14;;;;;;;1999.90;999.90;;;;;;;25.34;49.73;100556.91;15805846;28;20055;-63
2021/07/28 18:56:46;;;;;;;1999.90;999.90;;;;;;;25.24;50.48;100564.41;15787292;28;20036;-63
2021/07/28 19:04:19;;;;;;;1999.90;999.90;;;;;;;24.88;50.67;100566.28;15786555;28;20383;-63
2021/07/28 19:11:52;;;;;;;1999.90;999.90;;;;;;;24.93;51.06;100572.31;15769928;28;20063;-64
2021/07/28 19:19:25;;;;;;;1999.90;999.90;;;;;;;24.66;51.62;100575.22;15803586;28;20062;-64
2021/07/28 19:26:57;;;;;;;1999.90;999.90;;;;;;;24.47;51.78;100576.75;15803800;28;20067;-64
2021/07/28 19:34:31;;;;;;;1999.90;999.90;;;;;;;24.27;52.19;100583.53;15778163;28;20041;-63
2021/07/28 19:42:04;;;;;;;1999.90;999.90;;;;;;;24.35;52.50;100590.78;15740545;28;20119;-64
2021/07/28 19:49:38;;;;;;;1999.90;999.90;;;;;;;24.17;52.99;100599.56;15740050;28;20053;-64
2021/07/28 19:57:11;;;;;;;1999.90;999.90;;;;;;;24.09;53.92;100601.75;15720536;28;20090;-63
2021/07/28 20:04:45;;;;;;;1999.90;999.90;;;;;;;23.93;54.45;100601.53;15720017;28;20135;-64
2021/07/28 20:12:17;;;;;;;1999.90;999.90;;;;;;;23.57;55.88;100610.50;15719026;28;20048;-64
2021/07/28 20:19:51;;;;;;;1999.90;999.90;;;;;;;23.41;56.07;100613.13;15736549;28;20048;-64
2021/07/28 20:27:24;;;;;;;1999.90;999.90;;;;;;;23.25;56.78;100619.41;15720008;28;20040;-64
2021/07/28 20:35:00;;;;;;;;;;;;;;;23.11;57.24;100624.41;15766267;28;20048;-63
2021/07/28 20:42:35;;;;;;;1999.90;999.90;;;;;;;22.88;58.43;100613.66;15800044;28;19920;-63
2021/07/28 20:50:10;;;;;;;1999.90;999.90;;;;;;;22.69;59.03;100615.00;15725088;23;20057;-62
2021/07/28 20:57:42;;;;;;;1999.90;999.90;;;;;;;22.62;58.60;100612.22;15733497;28;20116;-63
2021/07/28 21:05:16;;;;;;;1999.90;999.90;;;;;;;22.46;59.34;100607.84;15735085;28;20478;-64
2021/07/28 21:12:49;;;;;;;1999.90;999.90;;;;;;;22.51;58.80;100609.47;15715968;28;20123;-63
2021/07/28 21:20:23;;;;;;;1999.90;999.90;;;;;;;22.52;58.47;100613.13;15735105;28;20044;-62
2021/07/28 21:27:56;;;;;;;1999.90;999.90;;;;;;;22.60;58.20;100612.63;15744812;28;20143;-63
2021/07/28 21:35:29;;;;;;;1999.90;999.90;;;;;;;22.39;58.50;100602.22;15712351;28;20045;-62
2021/07/28 21:43:03;;;;;;;1999.90;999.90;;;;;;;22.43;58.93;100599.38;15682175;28;20652;-63
2021/07/28 21:50:46;;;;;;;1999.90;999.90;;;;;;;22.50;58.90;100604.97;15681097;28;20090;-62
2021/07/28 21:58:26;;;;;;;1999.90;999.90;;;;;;;22.36;59.53;100597.38;15664688;28;20053;-63
2021/07/28 22:06:01;;;;;;;1999.90;999.90;;;;;;;22.31;59.86;100602.69;15682425;28;20080;-64
2021/07/28 22:13:35;;;;;;;1999.90;999.90;;;;;;;22.09;60.40;100605.69;15681704;28;20037;-63
2021/07/28 22:21:09;;;;;;;1999.90;999.90;;;;;;;21.88;61.40;100606.56;15679857;28;20068;-64
2021/07/28 22:28:42;;;;;;;1999.90;999.90;;;;;;;21.93;61.51;100611.00;15679663;28;20045;-63
2021/07/28 22:36:16;;;;;;;1999.90;999.90;;;;;;;22.06;61.33;100606.47;15718405;28;20036;-63
2021/07/28 22:43:48;;;;;;;1999.90;999.90;;;;;;;21.81;62.48;100597.25;15742481;28;20416;-64
2021/07/28 22:59:19;;;;;;;1999.90;999.90;;;;;;;22.03;62.33;100612.16;15739697;28;20053;-63
2021/07/28 23:06:57;;;;;;;1999.90;999.90;;;;;;;22.00;62.38;100610.16;15731928;28;20111;-64
2021/07/28 23:14:29;;;;;;;1999.90;999.90;;;;;;;21.66;63.60;100610.69;15726981;28;20417;-63
2021/07/28 23:22:02;;;;;;;1999.90;999.90;;;;;;;21.87;63.58;100604.09;15703073;28;20135;-63
2021/07/28 23:29:35;;;;;;;1999.90;999.90;;;;;;;21.97;63.20;100605.28;15727586;28;20122;-63
2021/07/28 23:37:08;;;;;;;1999.90;999.90;;;;;;;22.04;63.69;100597.53;15676461;28;20048;-64
2021/07/28 23:44:40;;;;;;;1999.90;999.90;;;;;;;22.06;64.00;100606.47;15675119;28;20060;-63
2021/07/28 23:52:14;;;;;;;1999.90;999.90;;;;;;;22.04;63.73;100600.38;15731247;28;20033;-62
2021/07/28 23:59:47;;;;;;;1999.90;999.90;;;;;;;22.01;64.21;100606.91;15718566;28;20074;-63
